createdAt,value
2022-12-24T00:01:06.528Z,99735.50
2022-12-24T00:03:34.679Z,99747.00
2022-12-24T00:06:05.648Z,99758.72
2022-12-24T00:08:33.472Z,99774.50
2022-12-24T00:11:01.196Z,99778.56
2022-12-24T00:13:29.456Z,99776.16
2022-12-24T00:15:58.640Z,99778.06
2022-12-24T00:18:26.395Z,99794.47
2022-12-24T00:20:54.889Z,99794.59
2022-12-24T00:23:22.955Z,99790.25
2022-12-24T00:25:50.658Z,99799.66
2022-12-24T00:28:18.316Z,99799.44
2022-12-24T00:30:46.028Z,99807.56
2022-12-24T00:33:20.846Z,99813.06
2022-12-24T00:35:53.585Z,99817.56
2022-12-24T00:38:21.723Z,99824.81
2022-12-24T00:40:49.366Z,99828.53
2022-12-24T00:43:17.043Z,99829.28
2022-12-24T00:45:44.682Z,99836.97
2022-12-24T00:48:12.315Z,99832.25
2022-12-24T00:50:41.354Z,99836.44
2022-12-24T00:53:09.055Z,99817.44
2022-12-24T00:55:36.952Z,99823.91
2022-12-24T00:58:04.615Z,99822.22
2022-12-24T01:00:32.387Z,99821.66
2022-12-24T01:03:00.646Z,99831.09
2022-12-24T01:05:27.457Z,99828.34
2022-12-24T01:07:56.477Z,99843.94
2022-12-24T01:10:24.158Z,99852.03
2022-12-24T01:12:51.907Z,99852.25
2022-12-24T01:15:19.786Z,99855.75
2022-12-24T01:17:47.864Z,99853.88
2022-12-24T01:20:17.683Z,99859.59
2022-12-24T01:22:45.684Z,99861.03
2022-12-24T01:25:15.704Z,99868.88
2022-12-24T01:27:43.511Z,99884.09
2022-12-24T01:30:15.882Z,99888.50
2022-12-24T01:32:43.626Z,99891.41
2022-12-24T01:35:12.090Z,99894.03
2022-12-24T01:37:40.539Z,99909.53
2022-12-24T01:40:24.170Z,99917.34
2022-12-24T01:43:11.770Z,99915.31
2022-12-24T01:45:46.780Z,99928.94
2022-12-24T01:48:23.271Z,99928.06
2022-12-24T01:50:55.457Z,99929.53
2022-12-24T01:53:23.251Z,99940.84
2022-12-24T01:55:51.925Z,99937.13
2022-12-24T01:58:25.566Z,99945.72
2022-12-24T02:00:53.311Z,99942.03
2022-12-24T02:03:22.077Z,99955.28
2022-12-24T02:05:51.518Z,99964.78
2022-12-24T02:08:19.799Z,99972.63
2022-12-24T02:10:49.189Z,99959.59
2022-12-24T02:13:21.479Z,99956.97
2022-12-24T02:16:07.711Z,99955.28
2022-12-24T02:18:44.648Z,99949.03
2022-12-24T02:21:39.107Z,99948.00
2022-12-24T02:24:45.386Z,99940.88
2022-12-24T02:27:22.299Z,99937.66
2022-12-24T02:30:11.944Z,99937.56
2022-12-24T02:33:14.507Z,99939.81
2022-12-24T02:35:49.656Z,99943.00
2022-12-24T02:38:25.671Z,99938.91
2022-12-24T02:40:56.248Z,99944.59
2022-12-24T02:43:28.396Z,99946.66
2022-12-24T02:46:02.053Z,99955.84
2022-12-24T02:48:32.033Z,99942.72
2022-12-24T02:51:04.696Z,99952.53
2022-12-24T02:53:33.342Z,99955.91
2022-12-24T02:56:19.270Z,99949.94
2022-12-24T02:59:01.370Z,99947.75
2022-12-24T03:01:43.441Z,99945.22
2022-12-24T03:04:39.177Z,99950.22
2022-12-24T03:07:13.296Z,99947.13
2022-12-24T03:09:53.550Z,99956.97
2022-12-24T03:12:25.250Z,99963.13
2022-12-24T03:14:53.139Z,99966.22
2022-12-24T03:17:22.502Z,99969.94
2022-12-24T03:19:51.188Z,99986.34
2022-12-24T03:22:19.713Z,99979.31
2022-12-24T03:24:47.485Z,99982.69
2022-12-24T03:27:16.349Z,99983.84
2022-12-24T03:29:44.206Z,100003.47
2022-12-24T03:32:11.978Z,100007.09
2022-12-24T03:34:40.989Z,100012.53
2022-12-24T03:37:08.692Z,100010.66
2022-12-24T03:39:36.378Z,100008.19
2022-12-24T03:42:04.331Z,100008.06
2022-12-24T03:44:32.059Z,100011.66
2022-12-24T03:46:59.794Z,100007.63
2022-12-24T03:49:27.495Z,99995.16
2022-12-24T03:51:56.475Z,100002.31
2022-12-24T03:54:24.217Z,100003.25
2022-12-24T03:56:51.872Z,100011.03
2022-12-24T03:59:19.614Z,100013.72
2022-12-24T04:01:47.561Z,100019.81
2022-12-24T04:04:15.395Z,100020.69
2022-12-24T04:06:43.812Z,100023.28
2022-12-24T04:09:12.800Z,100031.28
2022-12-24T04:11:40.493Z,100027.00
2022-12-24T04:14:08.272Z,100027.00
2022-12-24T04:16:36.022Z,100022.00
2022-12-24T04:19:03.924Z,100028.22
2022-12-24T04:21:31.601Z,100035.41
2022-12-24T04:23:59.275Z,100040.53
2022-12-24T04:26:28.275Z,100037.09
2022-12-24T04:28:56.463Z,100032.06
2022-12-24T04:31:24.171Z,100045.13
2022-12-24T04:33:53.370Z,100022.63
2022-12-24T04:36:21.900Z,100025.81
2022-12-24T04:38:50.150Z,100035.75
2022-12-24T04:41:23.972Z,100031.16
2022-12-24T04:43:55.416Z,100032.63
2022-12-24T04:46:25.774Z,100043.81
2022-12-24T04:48:55.135Z,100041.78
2022-12-24T04:51:23.668Z,100038.16
2022-12-24T04:53:51.979Z,100045.06
2022-12-24T04:56:22.274Z,100036.88
2022-12-24T04:58:50.622Z,100038.44
2022-12-24T05:01:22.463Z,100040.56
2022-12-24T05:03:50.935Z,100034.09
2022-12-24T05:06:21.352Z,100026.91
2022-12-24T05:08:49.882Z,100026.53
2022-12-24T05:11:18.557Z,100022.94
2022-12-24T05:13:48.115Z,100026.25
2022-12-24T05:16:17.980Z,100033.59
2022-12-24T05:18:47.348Z,100038.59
2022-12-24T05:21:17.612Z,100040.06
2022-12-24T05:24:03.781Z,100048.91
2022-12-24T05:26:37.305Z,100046.84
2022-12-24T05:29:06.670Z,100047.19
2022-12-24T05:31:35.972Z,100047.50
2022-12-24T05:34:04.969Z,100042.50
2022-12-24T05:36:33.341Z,100037.41
2022-12-24T05:39:01.491Z,100051.25
2022-12-24T05:41:29.250Z,100064.91
2022-12-24T05:43:57.289Z,100059.25
2022-12-24T05:46:25.960Z,100060.75
2022-12-24T05:48:54.851Z,100056.97
2022-12-24T05:51:25.084Z,100061.91
2022-12-24T05:53:53.242Z,100060.75
2022-12-24T05:56:25.824Z,100063.59
2022-12-24T05:58:54.796Z,100072.41
2022-12-24T06:01:23.594Z,100058.84
2022-12-24T06:03:51.909Z,100066.09
2022-12-24T06:06:22.020Z,100054.28
2022-12-24T06:08:52.699Z,100073.69
2022-12-24T06:11:22.925Z,100071.72
2022-12-24T06:13:51.271Z,100085.25
2022-12-24T06:16:20.931Z,100083.00
2022-12-24T06:18:49.030Z,100093.53
2022-12-24T06:21:17.409Z,100101.19
2022-12-24T06:23:46.415Z,100092.16
2022-12-24T06:26:17.919Z,100099.81
2022-12-24T06:28:47.025Z,100107.91
2022-12-24T06:31:16.665Z,100108.56
2022-12-24T06:33:44.742Z,100100.81
2022-12-24T06:36:18.077Z,100110.38
2022-12-24T06:38:46.368Z,100104.53
2022-12-24T06:41:16.405Z,100110.91
2022-12-24T06:43:46.602Z,100114.50
2022-12-24T06:46:15.150Z,100111.94
2022-12-24T06:48:44.428Z,100119.78
2022-12-24T06:51:12.228Z,100114.72
2022-12-24T06:53:40.104Z,100117.13
2022-12-24T06:56:09.529Z,100116.91
2022-12-24T06:58:38.957Z,100127.78
2022-12-24T07:01:08.816Z,100129.47
2022-12-24T07:03:37.440Z,100129.81
2022-12-24T07:06:05.699Z,100138.19
2022-12-24T07:08:36.230Z,100136.25
2022-12-24T07:11:04.473Z,100143.69
2022-12-24T07:13:34.252Z,100135.66
2022-12-24T07:16:04.822Z,100131.97
2022-12-24T07:18:32.952Z,100136.78
2022-12-24T07:21:00.845Z,100140.84
2022-12-24T07:23:28.560Z,100143.19
2022-12-24T07:25:56.212Z,100145.47
2022-12-24T07:28:27.865Z,100136.25
2022-12-24T07:30:56.112Z,100149.97
2022-12-24T07:33:26.131Z,100148.44
2022-12-24T07:36:00.514Z,100151.56
2022-12-24T07:38:28.991Z,100146.03
2022-12-24T07:40:57.518Z,100148.81
2022-12-24T07:43:25.341Z,100154.56
2022-12-24T07:45:56.454Z,100154.56
2022-12-24T07:48:26.998Z,100156.09
2022-12-24T07:50:54.902Z,100162.63
2022-12-24T07:53:22.616Z,100164.16
2022-12-24T07:55:50.399Z,100171.28
2022-12-24T07:58:18.563Z,100180.03
2022-12-24T08:00:46.293Z,100179.78
2022-12-24T08:03:17.989Z,100184.41
2022-12-24T08:05:47.854Z,100186.34
2022-12-24T08:08:16.000Z,100191.34
2022-12-24T08:10:45.665Z,100192.75
2022-12-24T08:13:13.885Z,100201.53
2022-12-24T08:15:41.646Z,100201.66
2022-12-24T08:18:09.484Z,100206.31
2022-12-24T08:20:39.489Z,100210.94
2022-12-24T08:23:09.464Z,100207.41
2022-12-24T08:25:37.809Z,100194.56
2022-12-24T08:28:06.246Z,100206.41
2022-12-24T08:30:34.126Z,100194.00
2022-12-24T08:33:02.056Z,100196.16
2022-12-24T08:35:29.786Z,100198.81
2022-12-24T08:37:57.873Z,100195.25
2022-12-24T08:40:27.045Z,100209.59
2022-12-24T08:42:54.932Z,100202.63
2022-12-24T08:45:23.528Z,100204.75
2022-12-24T08:47:51.215Z,100200.75
2022-12-24T08:50:18.934Z,100204.59
2022-12-24T08:52:46.656Z,100208.09
2022-12-24T08:55:14.771Z,100208.41
2022-12-24T08:57:44.086Z,100205.88
2022-12-24T09:00:14.519Z,100205.19
2022-12-24T09:02:42.751Z,100189.06
2022-12-24T09:05:10.675Z,100200.81
2022-12-24T09:07:38.631Z,100193.25
2022-12-24T09:10:07.691Z,100195.81
2022-12-24T09:12:35.401Z,100200.00
2022-12-24T09:15:08.058Z,100211.25
2022-12-24T09:17:36.551Z,100207.72
2022-12-24T09:20:04.691Z,100229.03
2022-12-24T09:22:32.414Z,100220.53
2022-12-24T09:25:00.175Z,100220.53
2022-12-24T09:27:27.838Z,100229.66
2022-12-24T09:29:55.543Z,100233.13
2022-12-24T09:32:24.734Z,100243.56
2022-12-24T09:34:52.353Z,100251.44
2022-12-24T09:37:20.506Z,100257.25
2022-12-24T09:39:48.241Z,100257.66
2022-12-24T09:42:28.238Z,100255.13
2022-12-24T09:45:02.022Z,100255.06
2022-12-24T09:47:35.746Z,100255.72
2022-12-24T09:50:08.778Z,100264.31
2022-12-24T09:52:40.999Z,100274.50
2022-12-24T09:55:21.948Z,100274.47
2022-12-24T09:57:52.084Z,100271.81
2022-12-24T10:00:23.914Z,100281.19
2022-12-24T10:02:53.414Z,100283.66
2022-12-24T10:05:39.123Z,100282.97
2022-12-24T10:08:18.735Z,100296.75
2022-12-24T10:10:52.721Z,100304.34
2022-12-24T10:13:31.893Z,100303.75
2022-12-24T10:16:04.309Z,100304.19
2022-12-24T10:18:49.119Z,100309.94
2022-12-24T10:21:34.448Z,100312.13
2022-12-24T10:24:08.949Z,100313.38
2022-12-24T10:26:43.795Z,100322.19
2022-12-24T10:29:16.541Z,100315.34
2022-12-24T10:31:52.088Z,100320.84
2022-12-24T10:34:24.726Z,100313.53
2022-12-24T10:36:52.729Z,100303.16
2022-12-24T10:39:24.846Z,100310.06
2022-12-24T10:41:57.619Z,100314.38
2022-12-24T10:44:29.063Z,100310.44
2022-12-24T10:46:56.955Z,100306.97
2022-12-24T10:49:32.885Z,100300.56
2022-12-24T10:52:05.418Z,100299.03
2022-12-24T10:54:39.462Z,100311.00
2022-12-24T10:57:24.235Z,100317.59
2022-12-24T10:59:54.784Z,100315.84
2022-12-24T11:02:31.713Z,100299.72
2022-12-24T11:05:02.909Z,100307.66
2022-12-24T11:07:32.372Z,100302.59
2022-12-24T11:10:02.379Z,100303.28
2022-12-24T11:12:32.079Z,100311.81
2022-12-24T11:15:07.842Z,100314.91
2022-12-24T11:17:35.749Z,100315.22
2022-12-24T11:20:06.492Z,100337.38
2022-12-24T11:22:35.357Z,100330.44
2022-12-24T11:25:06.453Z,100336.53
2022-12-24T11:27:42.120Z,100319.09
2022-12-24T11:30:22.535Z,100325.22
2022-12-24T11:32:51.602Z,100330.84
2022-12-24T11:35:22.765Z,100318.09
2022-12-24T11:37:50.816Z,100328.19
2022-12-24T11:40:24.127Z,100322.88
2022-12-24T11:42:53.827Z,100329.25
2022-12-24T11:45:26.879Z,100328.59
2022-12-24T11:47:54.913Z,100326.91
2022-12-24T11:50:27.790Z,100316.94
2022-12-24T11:53:06.087Z,100318.31
2022-12-24T11:55:43.325Z,100324.09
2022-12-24T11:58:22.707Z,100318.88
2022-12-24T12:00:52.678Z,100316.13
2022-12-24T12:03:32.668Z,100312.63
2022-12-24T12:06:05.455Z,100316.06
2022-12-24T12:08:34.201Z,100321.00
2022-12-24T12:11:09.616Z,100308.81
2022-12-24T12:13:39.846Z,100325.66
2022-12-24T12:16:19.653Z,100317.19
2022-12-24T12:18:53.791Z,100325.41
2022-12-24T12:21:26.536Z,100327.81
2022-12-24T12:23:59.622Z,100318.94
2022-12-24T12:26:29.478Z,100321.44
2022-12-24T12:29:00.191Z,100313.72
2022-12-24T12:31:34.106Z,100313.94
2022-12-24T12:34:06.984Z,100314.09
2022-12-24T12:36:42.007Z,100308.81
2022-12-24T12:39:10.983Z,100312.06
2022-12-24T12:41:54.662Z,100311.72
2022-12-24T12:44:45.690Z,100326.28
2022-12-24T12:47:33.895Z,100329.78
2022-12-24T12:50:13.379Z,100322.00
2022-12-24T12:52:57.902Z,100326.06
2022-12-24T12:55:41.091Z,100320.63
2022-12-24T12:58:17.687Z,100324.22
2022-12-24T13:00:48.043Z,100324.66
2022-12-24T13:03:45.101Z,100329.59
2022-12-24T13:06:37.901Z,100328.75
2022-12-24T13:09:34.876Z,100336.69
2022-12-24T13:12:21.449Z,100336.47
2022-12-24T13:15:08.231Z,100339.63
2022-12-24T13:18:06.484Z,100339.75
2022-12-24T13:20:36.992Z,100335.56
2022-12-24T13:23:13.395Z,100333.91
2022-12-24T13:25:44.562Z,100340.31
2022-12-24T13:28:34.809Z,100336.94
2022-12-24T13:31:29.649Z,100341.41
2022-12-24T13:34:03.399Z,100343.28
2022-12-24T13:37:05.368Z,100337.00
2022-12-24T13:40:10.317Z,100336.66
2022-12-24T13:43:07.844Z,100343.41
2022-12-24T13:45:46.922Z,100350.94
2022-12-24T13:48:26.693Z,100355.31
2022-12-24T13:50:57.696Z,100346.34
2022-12-24T13:53:32.578Z,100349.44
2022-12-24T13:56:09.996Z,100356.44
2022-12-24T13:58:42.338Z,100354.94
2022-12-24T14:01:14.317Z,100358.38
2022-12-24T14:03:45.695Z,100362.09
2022-12-24T14:06:24.044Z,100358.66
2022-12-24T14:08:54.583Z,100363.88
2022-12-24T14:11:24.702Z,100365.88
2022-12-24T14:13:56.803Z,100370.44
2022-12-24T14:16:25.612Z,100370.78
2022-12-24T14:19:01.011Z,100365.94
2022-12-24T14:21:32.834Z,100373.94
2022-12-24T14:24:03.864Z,100370.34
2022-12-24T14:26:35.542Z,100368.88
2022-12-24T14:29:08.532Z,100362.16
2022-12-24T14:31:36.289Z,100370.09
2022-12-24T14:34:08.781Z,100361.50
2022-12-24T14:36:37.665Z,100367.63
2022-12-24T14:39:08.170Z,100366.91
2022-12-24T14:41:46.749Z,100357.56
2022-12-24T14:44:29.725Z,100366.50
2022-12-24T14:47:13.410Z,100375.13
2022-12-24T14:49:58.267Z,100367.41
2022-12-24T14:53:04.204Z,100359.81
2022-12-24T14:55:31.264Z,100359.84
2022-12-24T14:58:22.726Z,100365.19
2022-12-24T15:00:53.322Z,100365.47
2022-12-24T15:03:23.537Z,100368.06
2022-12-24T15:05:53.792Z,100367.22
2022-12-24T15:08:28.336Z,100381.09
2022-12-24T15:10:59.571Z,100379.31
2022-12-24T15:13:35.238Z,100382.81
2022-12-24T15:16:09.059Z,100381.09
2022-12-24T15:18:40.261Z,100384.50
2022-12-24T15:21:16.044Z,100393.38
2022-12-24T15:23:47.853Z,100390.81
2022-12-24T15:26:22.626Z,100392.66
2022-12-24T15:28:55.073Z,100396.09
2022-12-24T15:31:29.947Z,100401.31
2022-12-24T15:33:59.249Z,100401.53
2022-12-24T15:36:32.281Z,100403.41
2022-12-24T15:39:03.226Z,100411.25
2022-12-24T15:41:37.860Z,100407.75
2022-12-24T15:44:06.094Z,100412.63
2022-12-24T15:46:35.359Z,100404.75
2022-12-24T15:49:04.404Z,100409.16
2022-12-24T15:51:40.182Z,100421.41
2022-12-24T15:54:14.950Z,100419.84
2022-12-24T15:56:45.074Z,100413.13
2022-12-24T15:59:20.290Z,100418.44
2022-12-24T16:01:49.898Z,100419.41
2022-12-24T16:04:23.515Z,100415.28
2022-12-24T16:06:58.440Z,100421.56
2022-12-24T16:09:34.203Z,100423.66
2022-12-24T16:12:03.582Z,100423.81
2022-12-24T16:14:33.381Z,100426.47
2022-12-24T16:17:02.533Z,100417.72
2022-12-24T16:19:39.632Z,100419.47
2022-12-24T16:22:22.335Z,100419.53
2022-12-24T16:24:52.158Z,100425.53
2022-12-24T16:27:20.018Z,100415.25
2022-12-24T16:29:47.764Z,100410.88
2022-12-24T16:32:29.171Z,100410.06
2022-12-24T16:34:56.979Z,100410.16
2022-12-24T16:37:24.913Z,100403.38
2022-12-24T16:39:52.908Z,100407.84
2022-12-24T16:42:38.609Z,100425.22
2022-12-24T16:45:07.741Z,100421.06
2022-12-24T16:47:42.823Z,100424.72
2022-12-24T16:50:17.095Z,100431.81
2022-12-24T16:52:44.839Z,100439.75
2022-12-24T16:55:14.490Z,100440.84
2022-12-24T16:57:43.465Z,100447.91
2022-12-24T17:00:16.374Z,100450.66
2022-12-24T17:02:45.652Z,100449.78
2022-12-24T17:05:13.878Z,100449.50
2022-12-24T17:07:44.041Z,100453.00
2022-12-24T17:10:14.178Z,100456.59
2022-12-24T17:12:42.269Z,100454.97
2022-12-24T17:15:11.046Z,100446.34
2022-12-24T17:17:39.030Z,100442.03
2022-12-24T17:20:11.332Z,100456.66
2022-12-24T17:22:39.175Z,100461.63
2022-12-24T17:25:09.116Z,100454.50
2022-12-24T17:27:37.177Z,100450.13
2022-12-24T17:30:05.739Z,100451.09
2022-12-24T17:32:33.457Z,100454.59
2022-12-24T17:35:02.419Z,100457.91
2022-12-24T17:37:31.837Z,100459.63
2022-12-24T17:39:59.562Z,100464.81
2022-12-24T17:42:27.280Z,100457.13
2022-12-24T17:44:54.982Z,100462.22
2022-12-24T17:47:22.793Z,100462.28
2022-12-24T17:49:50.667Z,100463.91
2022-12-24T17:52:18.436Z,100463.19
2022-12-24T17:54:47.435Z,100460.63
2022-12-24T17:57:15.202Z,100459.63
2022-12-24T17:59:42.860Z,100463.91
2022-12-24T18:02:13.391Z,100453.69
2022-12-24T18:04:41.247Z,100452.06
2022-12-24T18:07:08.985Z,100449.63
2022-12-24T18:09:37.304Z,100457.41
2022-12-24T18:12:07.005Z,100451.59
2022-12-24T18:14:34.725Z,100446.41
2022-12-24T18:17:02.499Z,100451.66
2022-12-24T18:19:30.494Z,100450.94
2022-12-24T18:21:58.174Z,100461.31
2022-12-24T18:24:25.883Z,100464.75
2022-12-24T18:26:53.651Z,100449.19
2022-12-24T18:29:22.814Z,100455.19
2022-12-24T18:31:50.647Z,100453.41
2022-12-24T18:34:18.419Z,100452.47
2022-12-24T18:36:52.881Z,100451.78
2022-12-24T18:39:22.828Z,100446.59
2022-12-24T18:41:50.701Z,100445.72
2022-12-24T18:44:24.619Z,100448.31
2022-12-24T18:46:54.678Z,100464.13
2022-12-24T18:49:22.592Z,100474.50
2022-12-24T18:51:50.250Z,100461.63
2022-12-24T18:54:18.029Z,100459.78
2022-12-24T18:56:46.159Z,100459.72
2022-12-24T18:59:13.870Z,100473.50
2022-12-24T19:01:41.882Z,100475.28
2022-12-24T19:04:11.397Z,100484.88
2022-12-24T19:06:39.191Z,100486.50
2022-12-24T19:09:06.934Z,100479.44
2022-12-24T19:11:36.837Z,100483.72
2022-12-24T19:14:06.293Z,100491.50
2022-12-24T19:16:35.905Z,100492.50
2022-12-24T19:19:05.136Z,100499.19
2022-12-24T19:21:34.992Z,100493.34
2022-12-24T19:24:03.001Z,100494.31
2022-12-24T19:26:30.783Z,100500.28
2022-12-24T19:28:58.448Z,100504.63
2022-12-24T19:31:27.133Z,100514.00
2022-12-24T19:33:56.726Z,100507.75
2022-12-24T19:36:26.559Z,100512.06
2022-12-24T19:38:56.438Z,100504.31
2022-12-24T19:41:25.615Z,100505.03
2022-12-24T19:43:55.595Z,100501.41
2022-12-24T19:46:25.325Z,100506.97
2022-12-24T19:48:55.133Z,100503.53
2022-12-24T19:51:24.115Z,100509.50
2022-12-24T19:53:52.613Z,100525.31
2022-12-24T19:56:24.056Z,100525.31
2022-12-24T19:58:51.900Z,100528.84
2022-12-24T20:01:21.797Z,100537.44
2022-12-24T20:03:51.672Z,100538.34
2022-12-24T20:06:21.392Z,100541.88
2022-12-24T20:08:49.455Z,100540.22
2022-12-24T20:11:20.471Z,100544.47
2022-12-24T20:13:49.872Z,100553.94
2022-12-24T20:16:19.757Z,100552.06
2022-12-24T20:18:52.783Z,100546.63
2022-12-24T20:21:20.919Z,100546.47
2022-12-24T20:23:49.117Z,100550.75
2022-12-24T20:26:19.928Z,100550.94
2022-12-24T20:28:49.239Z,100543.19
2022-12-24T20:31:20.077Z,100533.16
2022-12-24T20:33:48.736Z,100530.56
2022-12-24T20:36:18.760Z,100514.94
2022-12-24T20:38:47.603Z,100520.38
2022-12-24T20:41:17.955Z,100521.78
2022-12-24T20:43:48.612Z,100522.53
2022-12-24T20:46:19.058Z,100530.47
2022-12-24T20:48:47.520Z,100525.47
2022-12-24T20:51:23.152Z,100524.72
2022-12-24T20:53:52.543Z,100515.94
2022-12-24T20:56:20.966Z,100510.56
2022-12-24T20:58:48.897Z,100514.78
2022-12-24T21:01:20.037Z,100524.38
2022-12-24T21:03:48.154Z,100527.28
2022-12-24T21:06:17.670Z,100530.28
2022-12-24T21:08:45.578Z,100522.63
2022-12-24T21:11:30.577Z,100519.91
2022-12-24T21:13:58.336Z,100520.50
2022-12-24T21:16:27.521Z,100524.72
2022-12-24T21:18:55.373Z,100527.47
2022-12-24T21:21:23.076Z,100526.78
2022-12-24T21:23:50.843Z,100527.72
2022-12-24T21:26:18.660Z,100528.53
2022-12-24T21:28:46.410Z,100518.03
2022-12-24T21:31:15.254Z,100520.75
2022-12-24T21:33:45.164Z,100516.59
2022-12-24T21:36:13.874Z,100511.41
2022-12-24T21:38:41.935Z,100513.97
2022-12-24T21:41:12.590Z,100511.41
2022-12-24T21:43:42.287Z,100509.91
2022-12-24T21:46:11.796Z,100508.28
2022-12-24T21:48:57.377Z,100515.22
2022-12-24T21:51:27.749Z,100506.44
2022-12-24T21:54:13.004Z,100509.94
2022-12-24T21:56:54.891Z,100502.03
2022-12-24T21:59:26.630Z,100488.88
2022-12-24T22:01:55.649Z,100481.78
2022-12-24T22:04:23.900Z,100489.78
2022-12-24T22:07:11.477Z,100474.25
2022-12-24T22:09:57.881Z,100475.84
2022-12-24T22:12:26.372Z,100483.72
2022-12-24T22:14:54.104Z,100477.41
2022-12-24T22:17:25.542Z,100475.66
2022-12-24T22:19:53.898Z,100489.31
2022-12-24T22:22:24.156Z,100479.69
2022-12-24T22:24:51.928Z,100491.94
2022-12-24T22:27:19.714Z,100498.44
2022-12-24T22:29:47.674Z,100499.19
2022-12-24T22:32:15.464Z,100498.84
2022-12-24T22:34:43.521Z,100496.03
2022-12-24T22:37:11.341Z,100497.88
2022-12-24T22:39:40.389Z,100499.50
2022-12-24T22:42:08.160Z,100506.22
2022-12-24T22:44:36.001Z,100508.72
2022-12-24T22:47:03.754Z,100512.19
2022-12-24T22:49:31.656Z,100504.50
2022-12-24T22:51:59.785Z,100502.81
2022-12-24T22:54:27.439Z,100516.00
2022-12-24T22:56:56.496Z,100518.91
2022-12-24T22:59:24.482Z,100526.78
2022-12-24T23:01:53.900Z,100526.06
2022-12-24T23:04:21.803Z,100519.31
2022-12-24T23:06:49.573Z,100522.00
2022-12-24T23:09:18.551Z,100514.13
2022-12-24T23:11:46.469Z,100511.50
2022-12-24T23:14:36.449Z,100510.66
2022-12-24T23:17:04.702Z,100503.84
2022-12-24T23:19:33.546Z,100500.44
2022-12-24T23:22:01.585Z,100509.16
2022-12-24T23:24:29.557Z,100519.72
2022-12-24T23:26:58.388Z,100503.31
2022-12-24T23:29:27.400Z,100512.66
2022-12-24T23:31:55.457Z,100506.56
2022-12-24T23:34:23.155Z,100509.19
2022-12-24T23:36:50.900Z,100516.06
2022-12-24T23:39:18.676Z,100515.28
2022-12-24T23:41:46.396Z,100514.50
2022-12-24T23:44:14.093Z,100511.88
2022-12-24T23:46:43.336Z,100522.91
2022-12-24T23:49:14.607Z,100516.88
2022-12-24T23:51:42.508Z,100519.53
2022-12-24T23:54:10.347Z,100522.25
2022-12-24T23:56:38.537Z,100519.72
2022-12-24T23:59:06.232Z,100525.72
